Time;durP1;ratioP1;P1;durP2;ratioP2;P2;SDS_P1;SDS_P2;PMS_P1;PMS_P2;Temp;Humidity;BMP_temperature;BMP_pressure;BME280_temperature;BME280_humidity;BME280_pressure;Samples;Min_cycle;Max_cycle;Signal;HPM_P1;HPM_P2
2023/06/30 00:00:36;;;;;;;7.55;5.40;;;;;;;-140.66;100.00;55571.53;5116831;28;20030;-72
2023/06/30 00:03:22;;;;;;;7.95;5.50;;;;;;;-140.66;100.00;55571.53;5116903;28;20501;-72
2023/06/30 00:06:08;;;;;;;9.38;6.10;;;;;;;-140.66;100.00;55571.53;5116878;28;20471;-72
2023/06/30 00:08:53;;;;;;;9.52;6.00;;;;;;;-140.66;100.00;55571.53;5116588;28;20472;-72
2023/06/30 00:11:39;;;;;;;9.48;5.70;;;;;;;-140.66;100.00;55571.53;5117074;28;20483;-73
2023/06/30 00:14:25;;;;;;;8.63;5.85;;;;;;;-140.66;100.00;55571.53;5117532;28;20169;-72
2023/06/30 00:17:10;;;;;;;8.77;6.03;;;;;;;-140.66;100.00;55571.53;5117419;28;20049;-72
2023/06/30 00:19:58;;;;;;;8.05;5.90;;;;;;;-140.66;100.00;55571.53;5116165;28;20112;-72
2023/06/30 00:22:44;;;;;;;6.10;5.50;;;;;;;-140.66;100.00;55571.53;5116680;28;20024;-72
2023/06/30 00:25:30;;;;;;;8.35;5.95;;;;;;;-140.66;100.00;55571.53;5116176;28;20024;-72
2023/06/30 00:28:16;;;;;;;6.85;5.65;;;;;;;-140.66;100.00;55571.53;5116478;28;20087;-72
2023/06/30 00:31:01;;;;;;;6.40;5.63;;;;;;;-140.66;100.00;55571.53;5102872;28;20031;-71
2023/06/30 00:33:47;;;;;;;7.20;5.75;;;;;;;-140.66;100.00;55571.53;5102811;28;20514;-71
2023/06/30 00:36:33;;;;;;;7.80;5.80;;;;;;;-140.66;100.00;55571.53;5116951;28;20027;-72
2023/06/30 00:39:19;;;;;;;6.82;5.80;;;;;;;-140.66;100.00;55571.53;5132278;28;20054;-71
2023/06/30 00:42:04;;;;;;;8.82;6.82;;;;;;;-140.66;100.00;55571.53;5116305;28;20368;-72
2023/06/30 00:44:50;;;;;;;6.85;6.15;;;;;;;-140.66;100.00;55571.53;5116887;28;20465;-72
2023/06/30 00:47:36;;;;;;;10.30;6.10;;;;;;;-140.66;100.00;55571.53;5116438;28;20156;-72
2023/06/30 00:50:22;;;;;;;8.30;5.88;;;;;;;-140.66;100.00;55571.53;5116039;28;20099;-72
2023/06/30 00:53:08;;;;;;;10.80;6.72;;;;;;;-140.66;100.00;55571.53;5101667;28;20023;-71
2023/06/30 00:55:54;;;;;;;8.20;5.88;;;;;;;-140.66;100.00;55571.53;5102108;28;20027;-72
2023/06/30 00:58:39;;;;;;;7.10;6.03;;;;;;;-140.66;100.00;55571.53;5115421;28;20028;-71
2023/06/30 01:01:39;;;;;;;8.40;6.35;;;;;;;-140.66;100.00;55571.53;5116378;28;20135;-72
2023/06/30 01:04:42;;;;;;;7.88;5.97;;;;;;;-140.66;100.00;55571.53;5115376;28;20035;-72
2023/06/30 01:07:41;;;;;;;8.68;6.03;;;;;;;-140.66;100.00;55571.53;5100866;28;20034;-72
2023/06/30 01:10:29;;;;;;;7.43;6.25;;;;;;;-140.66;100.00;55571.53;5100852;28;20039;-72
2023/06/30 01:13:16;;;;;;;8.35;6.28;;;;;;;-140.66;100.00;55571.53;5115997;28;20027;-72
2023/06/30 01:16:04;;;;;;;7.40;6.32;;;;;;;-140.66;100.00;55571.53;5115909;28;20042;-72
2023/06/30 01:18:52;;;;;;;7.97;6.53;;;;;;;-140.66;100.00;55571.53;5114769;28;20104;-72
2023/06/30 01:21:39;;;;;;;7.95;6.55;;;;;;;-140.66;100.00;55571.53;5114415;28;20031;-72
2023/06/30 01:24:27;;;;;;;7.45;6.15;;;;;;;-140.66;100.00;55571.53;5114079;28;20027;-72
2023/06/30 01:27:13;;;;;;;10.30;6.22;;;;;;;-140.66;100.00;55571.53;5115330;28;20027;-73
2023/06/30 01:29:59;;;;;;;8.55;6.10;;;;;;;-140.66;100.00;55571.53;5114116;28;20023;-72
2023/06/30 01:32:45;;;;;;;7.68;5.88;;;;;;;-140.66;100.00;55571.53;5114739;28;20510;-72
2023/06/30 01:35:31;;;;;;;8.90;5.93;;;;;;;-140.66;100.00;55571.53;5114650;28;20423;-72
2023/06/30 01:38:17;;;;;;;9.35;6.32;;;;;;;-140.66;100.00;55571.53;5114986;28;20034;-72
2023/06/30 01:41:06;;;;;;;10.15;6.10;;;;;;;-140.66;100.00;55571.53;5114789;28;20070;-71
2023/06/30 01:43:53;;;;;;;9.73;6.43;;;;;;;-140.66;100.00;55571.53;5115704;28;20043;-70
2023/06/30 01:46:39;;;;;;;8.63;6.60;;;;;;;-140.66;100.00;55571.53;5109122;28;20028;-71
2023/06/30 01:49:26;;;;;;;9.77;6.20;;;;;;;-140.66;100.00;55571.53;5107883;28;20354;-72
2023/06/30 01:52:11;;;;;;;7.35;6.32;;;;;;;-140.66;100.00;55571.53;5114125;28;20046;-73
2023/06/30 01:54:57;;;;;;;7.93;6.30;;;;;;;-140.66;100.00;55571.53;5099755;28;20429;-72
2023/06/30 01:57:43;;;;;;;8.38;6.95;;;;;;;-140.66;100.00;55571.53;5113820;28;20401;-73
2023/06/30 02:00:29;;;;;;;7.72;6.40;;;;;;;-140.66;100.00;55571.53;5114086;28;20089;-72
2023/06/30 02:03:14;;;;;;;8.73;6.50;;;;;;;-140.66;100.00;55571.53;5115382;28;20027;-72
2023/06/30 02:06:00;;;;;;;7.97;5.95;;;;;;;-140.66;100.00;55571.53;5115305;28;20057;-73
2023/06/30 02:08:46;;;;;;;8.75;6.38;;;;;;;-140.66;100.00;55571.53;5113899;28;20054;-72
2023/06/30 02:11:32;;;;;;;8.73;6.50;;;;;;;-140.66;100.00;55571.53;5113434;28;20365;-73
2023/06/30 02:14:18;;;;;;;9.02;7.10;;;;;;;-140.66;100.00;55571.53;5099533;28;20043;-72
2023/06/30 02:17:05;;;;;;;9.75;6.55;;;;;;;-140.66;100.00;55571.53;5114765;28;20024;-72
2023/06/30 02:19:50;;;;;;;7.43;6.50;;;;;;;-140.66;100.00;55571.53;5113453;28;20031;-71
2023/06/30 02:22:38;;;;;;;9.60;6.10;;;;;;;-140.66;100.00;55571.53;5113920;28;20031;-72
2023/06/30 02:25:24;;;;;;;11.02;6.53;;;;;;;-140.66;100.00;55571.53;5112962;28;20089;-72
2023/06/30 02:28:09;;;;;;;9.35;6.75;;;;;;;-140.66;100.00;55571.53;5113641;28;20023;-72
2023/06/30 02:30:55;;;;;;;8.38;6.10;;;;;;;-140.66;100.00;55571.53;5113325;28;20032;-73
2023/06/30 02:33:41;;;;;;;8.05;6.00;;;;;;;-140.66;100.00;55571.53;5114402;28;20027;-72
2023/06/30 02:36:27;;;;;;;10.88;6.50;;;;;;;-140.66;100.00;55571.53;5099642;28;20031;-73
2023/06/30 02:39:13;;;;;;;8.27;7.10;;;;;;;-140.66;100.00;55571.53;5113522;28;20386;-72
2023/06/30 02:41:58;;;;;;;10.93;7.00;;;;;;;-140.66;100.00;55571.53;5099874;28;20028;-72
2023/06/30 02:44:44;;;;;;;9.25;7.22;;;;;;;-140.66;100.00;55571.53;5113158;28;20369;-72
2023/06/30 02:47:30;;;;;;;10.35;7.68;;;;;;;-140.66;100.00;55571.53;5099396;28;20472;-73
2023/06/30 02:50:15;;;;;;;8.35;6.72;;;;;;;-140.66;100.00;55571.53;5113308;28;20064;-73
2023/06/30 02:53:01;;;;;;;8.13;6.65;;;;;;;-140.66;100.00;55571.53;5113849;28;20024;-73
2023/06/30 02:55:47;;;;;;;8.25;6.82;;;;;;;-140.66;100.00;55571.53;5112862;28;20095;-73
2023/06/30 02:58:36;;;;;;;7.80;6.72;;;;;;;-140.66;100.00;55571.53;5112319;28;20028;-73
2023/06/30 03:01:22;;;;;;;8.57;6.95;;;;;;;-140.66;100.00;55571.53;5112821;28;20461;-73
2023/06/30 03:04:08;;;;;;;11.32;7.97;;;;;;;-140.66;100.00;55571.53;5111891;28;20165;-73
2023/06/30 03:06:53;;;;;;;9.07;8.15;;;;;;;-140.66;100.00;55571.53;5098656;28;20338;-72
2023/06/30 03:09:39;;;;;;;11.60;8.05;;;;;;;-140.66;100.00;55571.53;5112779;28;20024;-72
2023/06/30 03:12:25;;;;;;;8.27;7.43;;;;;;;-140.66;100.00;55571.53;5113648;28;20028;-72
2023/06/30 03:15:11;;;;;;;9.73;7.50;;;;;;;-140.66;100.00;55571.53;5097322;28;20465;-72
2023/06/30 03:17:56;;;;;;;11.07;8.13;;;;;;;-140.66;100.00;55571.53;5072554;28;1129033;-72
2023/06/30 03:20:42;;;;;;;10.55;8.32;;;;;;;-140.66;100.00;55571.53;5113861;28;20040;-73
2023/06/30 03:23:28;;;;;;;12.52;8.10;;;;;;;-140.66;100.00;55571.53;5107225;28;20035;-72
2023/06/30 03:26:14;;;;;;;11.68;7.70;;;;;;;-140.66;100.00;55571.53;5119074;28;20035;-73
2023/06/30 03:29:01;;;;;;;10.65;7.18;;;;;;;-140.66;100.00;55571.53;5130583;28;20034;-72
2023/06/30 03:31:46;;;;;;;11.23;7.93;;;;;;;-140.66;100.00;55571.53;5099310;28;20459;-72
2023/06/30 03:34:32;;;;;;;10.02;7.70;;;;;;;-140.66;100.00;55571.53;5113880;28;20027;-72
2023/06/30 03:37:18;;;;;;;13.88;7.78;;;;;;;-140.66;100.00;55571.53;5112980;28;20043;-72
2023/06/30 03:40:05;;;;;;;10.27;7.40;;;;;;;-140.66;100.00;55571.53;5113515;28;20030;-72
2023/06/30 03:42:51;;;;;;;10.82;8.43;;;;;;;-140.66;100.00;55571.53;5099193;28;20019;-72
2023/06/30 03:45:40;;;;;;;8.80;7.65;;;;;;;-140.66;100.00;55571.53;5115484;28;20088;-72
2023/06/30 03:48:25;;;;;;;9.05;7.50;;;;;;;-140.66;100.00;55571.53;5114365;28;20119;-71
2023/06/30 03:51:11;;;;;;;9.18;7.97;;;;;;;-140.66;100.00;55571.53;5113399;28;20035;-73
2023/06/30 03:53:57;;;;;;;9.50;7.72;;;;;;;-140.66;100.00;55571.53;5113716;28;20042;-73
2023/06/30 03:56:42;;;;;;;10.07;7.75;;;;;;;-140.66;100.00;55571.53;5113930;28;20026;-72
2023/06/30 03:59:28;;;;;;;8.38;7.43;;;;;;;-140.66;100.00;55571.53;5098923;28;20338;-73
2023/06/30 04:02:14;;;;;;;11.35;8.40;;;;;;;-140.66;100.00;55571.53;5113230;28;20338;-72
2023/06/30 04:04:59;;;;;;;12.60;7.97;;;;;;;-140.66;100.00;55571.53;5113856;28;20345;-72
2023/06/30 04:07:45;;;;;;;12.32;8.48;;;;;;;-140.66;100.00;55571.53;5113369;28;20448;-72
2023/06/30 04:10:31;;;;;;;12.90;8.30;;;;;;;-140.66;100.00;55571.53;5116755;28;20505;-71
2023/06/30 04:13:17;;;;;;;10.45;8.10;;;;;;;-140.66;100.00;55571.53;5117151;28;20464;-72
2023/06/30 04:16:03;;;;;;;11.00;8.55;;;;;;;-140.66;100.00;55571.53;5117471;28;20435;-72
2023/06/30 04:18:49;;;;;;;12.30;8.68;;;;;;;-140.66;100.00;55571.53;5116100;28;20048;-72
2023/06/30 04:21:34;;;;;;;10.68;8.50;;;;;;;-140.66;100.00;55571.53;5116311;28;20108;-72
2023/06/30 04:24:20;;;;;;;9.82;8.55;;;;;;;-140.66;100.00;55571.53;5116722;28;20030;-72
2023/06/30 04:27:06;;;;;;;9.63;8.07;;;;;;;-140.66;100.00;55571.53;5117362;28;20114;-73
2023/06/30 04:29:51;;;;;;;10.05;8.10;;;;;;;-140.66;100.00;55571.53;5101561;28;20441;-72
2023/06/30 04:32:37;;;;;;;13.07;8.38;;;;;;;-140.66;100.00;55571.53;5116373;28;20030;-73
2023/06/30 04:35:25;;;;;;;10.30;8.25;;;;;;;-140.66;100.00;55571.53;5115552;28;20059;-73
2023/06/30 04:38:10;;;;;;;9.32;7.85;;;;;;;-140.66;100.00;55571.53;5116161;28;20019;-73
2023/06/30 04:40:56;;;;;;;12.10;8.02;;;;;;;-140.66;100.00;55571.53;5116246;28;20024;-73
2023/06/30 04:43:43;;;;;;;11.13;8.43;;;;;;;-140.66;100.00;55571.53;5116404;28;20116;-73
2023/06/30 04:46:30;;;;;;;9.90;8.90;;;;;;;-140.66;100.00;55571.53;5116208;28;20162;-72
2023/06/30 04:49:15;;;;;;;8.95;8.00;;;;;;;-140.66;100.00;55571.53;5116175;28;20031;-72
2023/06/30 04:52:01;;;;;;;12.23;9.85;;;;;;;-140.66;100.00;55571.53;5099719;28;20084;-72
2023/06/30 04:54:47;;;;;;;14.48;9.75;;;;;;;-140.66;100.00;55571.53;5115823;28;20501;-76
2023/06/30 04:57:32;;;;;;;10.73;9.10;;;;;;;-140.66;100.00;55571.53;5100421;28;20038;-74
2023/06/30 05:00:18;;;;;;;10.38;9.27;;;;;;;-140.66;100.00;55571.53;5116457;28;20523;-73
2023/06/30 05:03:04;;;;;;;14.05;9.55;;;;;;;-140.66;100.00;55571.53;5117891;28;20027;-73
2023/06/30 05:05:50;;;;;;;13.73;8.85;;;;;;;-140.66;100.00;55571.53;5118173;28;20076;-73
2023/06/30 05:08:35;;;;;;;16.90;9.80;;;;;;;-140.66;100.00;55571.53;5118115;28;20362;-73
2023/06/30 05:11:21;;;;;;;12.27;9.23;;;;;;;-140.66;100.00;55571.53;5104006;28;20070;-73
2023/06/30 05:14:07;;;;;;;13.13;8.93;;;;;;;-140.66;100.00;55571.53;5104625;28;20083;-74
2023/06/30 05:16:53;;;;;;;12.85;9.05;;;;;;;-140.66;100.00;55571.53;5118505;28;20042;-74
2023/06/30 05:19:38;;;;;;;11.50;9.50;;;;;;;-140.66;100.00;55571.53;5118148;28;20047;-73
2023/06/30 05:22:24;;;;;;;17.30;9.43;;;;;;;-140.66;100.00;55571.53;5101402;28;20089;-74
2023/06/30 05:25:10;;;;;;;9.80;8.80;;;;;;;-140.66;100.00;55571.53;5100774;28;20461;-74
2023/06/30 05:27:56;;;;;;;10.43;8.98;;;;;;;-140.66;100.00;55571.53;5101163;28;20027;-74
2023/06/30 05:30:41;;;;;;;11.25;8.60;;;;;;;-140.66;100.00;55571.53;5115219;28;20027;-74
2023/06/30 05:33:27;;;;;;;12.10;8.88;;;;;;;-140.66;100.00;55571.53;5102136;28;20485;-74
2023/06/30 05:36:13;;;;;;;10.80;8.38;;;;;;;-140.66;100.00;55571.53;5100937;28;20046;-73
2023/06/30 05:38:59;;;;;;;14.48;8.95;;;;;;;-140.66;100.00;55571.53;5115387;28;20028;-74
2023/06/30 05:41:44;;;;;;;10.68;8.75;;;;;;;-140.66;100.00;55571.53;5115239;28;20102;-74
2023/06/30 05:44:30;;;;;;;9.85;8.55;;;;;;;-140.66;100.00;55571.53;5115578;28;20020;-74
2023/06/30 05:47:16;;;;;;;11.13;8.90;;;;;;;-140.66;100.00;55571.53;5114440;28;20137;-72
2023/06/30 05:50:02;;;;;;;12.95;8.77;;;;;;;-140.66;100.00;55571.53;5114718;28;20051;-74
2023/06/30 05:52:49;;;;;;;21.42;9.13;;;;;;;-140.66;100.00;55571.53;5114790;28;20516;-73
2023/06/30 05:55:34;;;;;;;10.98;8.40;;;;;;;-140.66;100.00;55571.53;5098694;28;20042;-74
2023/06/30 05:58:20;;;;;;;11.85;9.30;;;;;;;-140.66;100.00;55571.53;5100585;28;20015;-75
2023/06/30 06:01:06;;;;;;;10.30;8.50;;;;;;;-140.66;100.00;55571.53;5114781;28;20088;-74
2023/06/30 06:03:52;;;;;;;10.95;9.07;;;;;;;-140.66;100.00;55571.53;5101278;28;20063;-73
2023/06/30 06:06:38;;;;;;;15.52;8.35;;;;;;;-140.66;100.00;55571.53;5115155;28;20027;-75
2023/06/30 06:09:23;;;;;;;12.27;8.13;;;;;;;-140.66;100.00;55571.53;5099909;28;20299;-75
2023/06/30 06:12:09;;;;;;;11.90;8.02;;;;;;;-140.66;100.00;55571.53;5114533;28;20020;-75
2023/06/30 06:14:55;;;;;;;11.02;8.27;;;;;;;-140.66;100.00;55571.53;5113949;28;20072;-74
2023/06/30 06:17:40;;;;;;;11.23;7.95;;;;;;;-140.66;100.00;55571.53;5114221;28;20527;-74
2023/06/30 06:20:26;;;;;;;10.45;8.48;;;;;;;-140.66;100.00;55571.53;5114310;28;20044;-74
2023/06/30 06:23:12;;;;;;;9.07;8.13;;;;;;;-140.66;100.00;55571.53;5114017;28;20117;-74
2023/06/30 06:25:58;;;;;;;10.10;7.72;;;;;;;-140.66;100.00;55571.53;5114278;28;20106;-74
2023/06/30 06:28:43;;;;;;;8.98;8.07;;;;;;;-140.66;100.00;55571.53;5114686;28;20077;-74
2023/06/30 06:31:29;;;;;;;14.05;7.72;;;;;;;-140.66;100.00;55571.53;5113583;28;20023;-74
2023/06/30 06:34:17;;;;;;;14.05;8.93;;;;;;;-140.66;100.00;55571.53;5113717;28;20122;-74
2023/06/30 06:37:03;;;;;;;10.43;8.02;;;;;;;-140.66;100.00;55571.53;5100257;28;20110;-74
2023/06/30 06:39:48;;;;;;;17.80;7.90;;;;;;;-140.66;100.00;55571.53;5123087;28;20016;-74
2023/06/30 06:42:34;;;;;;;10.35;7.05;;;;;;;-140.66;100.00;55571.53;5133300;28;20031;-75
2023/06/30 06:45:20;;;;;;;10.25;7.95;;;;;;;-140.66;100.00;55571.53;5117739;28;20423;-74
2023/06/30 06:48:26;;;;;;;12.55;7.50;;;;;;;-140.66;100.00;55571.53;5117936;28;20105;-74
2023/06/30 06:51:12;;;;;;;9.70;7.50;;;;;;;-140.66;100.00;55571.53;5120764;28;20035;-73
2023/06/30 06:53:58;;;;;;;10.00;7.57;;;;;;;-140.66;100.00;55571.53;5114541;28;20024;-74
2023/06/30 06:56:44;;;;;;;10.77;7.28;;;;;;;-140.66;100.00;55571.53;5113924;28;20024;-74
2023/06/30 06:59:30;;;;;;;10.85;7.65;;;;;;;-140.66;100.00;55571.53;5114562;28;20120;-75
2023/06/30 07:02:16;;;;;;;7.90;7.10;;;;;;;-140.66;100.00;55571.53;5114326;28;20503;-74
2023/06/30 07:05:02;;;;;;;7.32;6.63;;;;;;;-140.66;100.00;55571.53;5112965;28;20366;-75
2023/06/30 07:07:47;;;;;;;9.55;6.95;;;;;;;-140.66;100.00;55571.53;5098300;28;20110;-74
2023/06/30 07:10:34;;;;;;;7.25;6.30;;;;;;;-140.66;100.00;55571.53;5113775;28;20371;-75
2023/06/30 07:13:21;;;;;;;8.00;6.40;;;;;;;-140.66;100.00;55571.53;5113230;28;20024;-74
2023/06/30 07:16:07;;;;;;;7.85;6.30;;;;;;;-140.66;100.00;55571.53;5113718;28;20118;-74
2023/06/30 07:18:52;;;;;;;8.18;6.35;;;;;;;-140.66;100.00;55571.53;5114485;28;20112;-74
2023/06/30 07:21:38;;;;;;;8.15;6.55;;;;;;;-140.66;100.00;55571.53;5098815;28;20038;-74
2023/06/30 07:24:24;;;;;;;8.32;6.70;;;;;;;-140.66;100.00;55571.53;5114174;28;20031;-75
2023/06/30 07:27:10;;;;;;;11.80;8.00;;;;;;;-140.66;100.00;55571.53;5113161;28;20449;-76
2023/06/30 07:29:55;;;;;;;8.32;6.20;;;;;;;-140.66;100.00;55571.53;5098231;28;20281;-74
2023/06/30 07:32:41;;;;;;;8.52;5.97;;;;;;;-140.66;100.00;55571.53;5114149;28;20020;-73
2023/06/30 07:35:27;;;;;;;9.32;5.97;;;;;;;-140.66;100.00;55571.53;5113271;28;20023;-74
2023/06/30 07:38:13;;;;;;;10.10;6.30;;;;;;;-140.66;100.00;55571.53;5113675;28;20062;-75
2023/06/30 07:40:59;;;;;;;15.70;5.95;;;;;;;-140.66;100.00;55571.53;5112940;28;20449;-75
2023/06/30 07:43:45;;;;;;;7.40;6.15;;;;;;;-140.66;100.00;55571.53;5114959;28;20032;-75
2023/06/30 07:46:31;;;;;;;12.20;8.68;;;;;;;-140.66;100.00;55571.53;5117783;28;20024;-74
2023/06/30 07:49:17;;;;;;;7.00;6.07;;;;;;;-140.66;100.00;55571.53;5116447;28;20023;-75
2023/06/30 07:52:02;;;;;;;7.20;6.50;;;;;;;-140.66;100.00;55571.53;5116910;28;20055;-74
2023/06/30 07:54:52;;;;;;;17.42;7.40;;;;;;;-140.66;100.00;55571.53;5117679;28;20415;-74
2023/06/30 07:57:37;;;;;;;11.57;5.63;;;;;;;-140.66;100.00;55571.53;5117941;28;20448;-74
2023/06/30 08:00:28;;;;;;;12.50;6.03;;;;;;;-140.66;100.00;55571.53;5103108;28;20038;-74
2023/06/30 08:03:14;;;;;;;6.70;5.45;;;;;;;-140.66;100.00;55571.53;5117333;28;20106;-74
2023/06/30 08:06:00;;;;;;;6.53;5.45;;;;;;;-140.66;100.00;55571.53;5117566;28;20043;-74
2023/06/30 08:08:45;;;;;;;6.18;5.57;;;;;;;-140.66;100.00;55571.53;5117694;28;20389;-74
2023/06/30 08:11:32;;;;;;;8.65;6.32;;;;;;;-140.66;100.00;55571.53;5116713;28;20073;-74
2023/06/30 08:14:18;;;;;;;6.15;5.55;;;;;;;-140.66;100.00;55571.53;5102649;28;20037;-74
2023/06/30 08:17:03;;;;;;;7.82;4.90;;;;;;;-140.66;100.00;55571.53;5116793;28;20019;-74
2023/06/30 08:19:49;;;;;;;7.53;5.53;;;;;;;-140.66;100.00;55571.53;5115853;28;20047;-74
2023/06/30 08:22:35;;;;;;;10.43;5.43;;;;;;;-140.66;100.00;55571.53;5117014;28;20030;-75
2023/06/30 08:25:24;;;;;;;8.63;5.35;;;;;;;-140.66;100.00;55571.53;5116479;28;20023;-74
2023/06/30 08:28:10;;;;;;;6.13;5.47;;;;;;;-140.66;100.00;55571.53;5116878;28;20066;-74
2023/06/30 08:30:56;;;;;;;8.40;5.53;;;;;;;-140.66;100.00;55571.53;5116489;28;20035;-74
2023/06/30 08:33:41;;;;;;;6.78;5.28;;;;;;;-140.66;100.00;55571.53;5116615;28;20035;-75
2023/06/30 08:36:27;;;;;;;6.30;4.95;;;;;;;-140.66;100.00;55571.53;5102135;28;20038;-74
2023/06/30 08:39:13;;;;;;;8.95;5.03;;;;;;;-140.66;100.00;55571.53;5116411;28;20446;-75
2023/06/30 08:42:00;;;;;;;8.13;4.85;;;;;;;-140.66;100.00;55571.53;5116479;28;20046;-75
2023/06/30 08:44:49;;;;;;;6.78;5.15;;;;;;;-140.66;100.00;55571.53;5115823;28;20039;-74
2023/06/30 08:47:37;;;;;;;5.88;4.80;;;;;;;-140.66;100.00;55571.53;5102231;28;20038;-74
2023/06/30 08:50:23;;;;;;;17.40;5.63;;;;;;;-140.66;100.00;55571.53;5101542;28;20031;-74
2023/06/30 08:53:09;;;;;;;12.10;4.68;;;;;;;-140.66;100.00;55571.53;5101459;28;20115;-75
2023/06/30 08:55:58;;;;;;;7.55;4.50;;;;;;;-140.66;100.00;55571.53;5116103;28;20059;-74
2023/06/30 08:58:44;;;;;;;9.85;4.57;;;;;;;-140.66;100.00;55571.53;5115950;28;20027;-75
2023/06/30 09:01:30;;;;;;;8.85;4.22;;;;;;;-140.66;100.00;55571.53;5115179;28;20016;-74
2023/06/30 09:04:16;;;;;;;6.97;4.50;;;;;;;-140.66;100.00;55571.53;5116105;28;20023;-74
2023/06/30 09:07:06;;;;;;;4.68;3.95;;;;;;;-140.66;100.00;55571.53;5101759;28;20035;-74
2023/06/30 09:09:56;;;;;;;8.70;4.60;;;;;;;-140.66;100.00;55571.53;5116056;28;20446;-74
2023/06/30 09:12:46;;;;;;;4.90;4.22;;;;;;;-140.66;100.00;55571.53;5115749;28;20034;-74
2023/06/30 09:15:33;;;;;;;4.30;3.90;;;;;;;-140.66;100.00;55571.53;5110638;28;20019;-74
2023/06/30 09:18:19;;;;;;;3.97;3.60;;;;;;;-140.66;100.00;55571.53;5115822;28;20044;-75
2023/06/30 09:21:06;;;;;;;9.75;4.30;;;;;;;-140.66;100.00;55571.53;5114971;28;20413;-74
2023/06/30 09:23:52;;;;;;;6.50;4.25;;;;;;;-140.66;100.00;55571.53;5115897;28;20028;-74
2023/06/30 09:26:38;;;;;;;4.57;3.88;;;;;;;-140.66;100.00;55571.53;5115438;28;20034;-75
2023/06/30 09:29:24;;;;;;;7.95;4.43;;;;;;;-140.66;100.00;55571.53;5115012;28;20106;-74
2023/06/30 09:32:10;;;;;;;7.53;3.80;;;;;;;-140.66;100.00;55571.53;5115372;28;20026;-74
2023/06/30 09:34:56;;;;;;;5.78;4.00;;;;;;;-140.66;100.00;55571.53;5114760;28;20108;-74
2023/06/30 09:37:42;;;;;;;7.47;3.97;;;;;;;-140.66;100.00;55571.53;5115507;28;20035;-75
2023/06/30 09:40:28;;;;;;;6.00;4.07;;;;;;;-140.66;100.00;55571.53;5114864;28;20114;-76
2023/06/30 09:43:19;;;;;;;6.43;3.63;;;;;;;-140.66;100.00;55571.53;5101671;28;20054;-77
2023/06/30 09:46:05;;;;;;;8.13;3.90;;;;;;;-140.66;100.00;55571.53;5105727;27;20023;-75
2023/06/30 09:48:55;;;;;;;6.28;3.85;;;;;;;-140.66;100.00;55571.53;5119519;27;20027;-74
2023/06/30 09:51:42;;;;;;;4.97;3.85;;;;;;;-140.66;100.00;55571.53;5116285;28;20496;-74
2023/06/30 09:54:29;;;;;;;3.92;3.45;;;;;;;-140.66;100.00;55571.53;5100310;28;20032;-74
2023/06/30 09:57:15;;;;;;;5.78;3.25;;;;;;;-140.66;100.00;55571.53;5099338;28;20032;-74
2023/06/30 10:00:01;;;;;;;8.25;3.55;;;;;;;-140.66;100.00;55571.53;5114710;28;20026;-74
2023/06/30 10:03:01;;;;;;;5.75;3.40;;;;;;;-140.66;100.00;55571.53;5114612;28;20346;-75
2023/06/30 10:05:50;;;;;;;3.90;3.28;;;;;;;-140.66;100.00;55571.53;5115436;28;20464;-74
2023/06/30 10:08:37;;;;;;;5.40;3.42;;;;;;;-140.66;100.00;55571.53;5115189;28;20046;-74
2023/06/30 10:11:25;;;;;;;6.22;3.10;;;;;;;-140.66;100.00;55571.53;5113239;28;20039;-74
2023/06/30 10:14:13;;;;;;;4.78;3.58;;;;;;;-140.66;100.00;55571.53;5115658;28;20418;-74
2023/06/30 10:17:02;;;;;;;6.10;3.10;;;;;;;-140.66;100.00;55571.53;5100363;28;20027;-74
2023/06/30 10:19:48;;;;;;;5.25;3.20;;;;;;;-140.66;100.00;55571.53;5113368;28;20039;-74
2023/06/30 10:22:35;;;;;;;4.40;3.30;;;;;;;-140.66;100.00;55571.53;5114279;28;20028;-74
2023/06/30 10:25:23;;;;;;;5.80;3.03;;;;;;;-140.66;100.00;55571.53;5114643;28;20023;-74
2023/06/30 10:28:09;;;;;;;4.00;3.15;;;;;;;-140.66;100.00;55571.53;5114752;28;20031;-76
2023/06/30 10:30:54;;;;;;;10.43;3.30;;;;;;;-140.66;100.00;55571.53;5121864;28;20548;-77
2023/06/30 10:33:40;;;;;;;4.57;3.03;;;;;;;-140.66;100.00;55571.53;5136695;28;20080;-74
2023/06/30 10:36:27;;;;;;;4.35;2.90;;;;;;;-140.66;100.00;55571.53;5123267;28;20083;-73
2023/06/30 10:39:14;;;;;;;7.55;3.00;;;;;;;-140.66;100.00;55571.53;5115548;28;20024;-72
2023/06/30 10:42:00;;;;;;;7.70;3.05;;;;;;;-140.66;100.00;55571.53;5133745;27;20037;-73
2023/06/30 10:44:47;;;;;;;5.15;3.20;;;;;;;-140.66;100.00;55571.53;5134615;27;20337;-74
2023/06/30 10:47:38;;;;;;;4.38;3.00;;;;;;;-140.66;100.00;55571.53;5134888;27;20038;-70
2023/06/30 10:50:24;;;;;;;7.68;3.38;;;;;;;-140.66;100.00;55571.53;5120551;27;20033;-69
2023/06/30 10:53:17;;;;;;;3.45;2.65;;;;;;;-140.66;100.00;55571.53;5134465;27;20081;-72
2023/06/30 10:56:03;;;;;;;8.63;2.90;;;;;;;-140.66;100.00;55571.53;5137576;27;20027;-73
2023/06/30 10:58:49;;;;;;;4.40;3.00;;;;;;;-140.66;100.00;55571.53;5153573;28;20051;-74
2023/06/30 11:01:37;;;;;;;3.47;2.67;;;;;;;-140.66;100.00;55571.53;5134917;28;20041;-74
2023/06/30 11:04:23;;;;;;;6.53;2.67;;;;;;;-140.66;100.00;55571.53;5136064;28;20034;-74
2023/06/30 11:07:10;;;;;;;6.50;2.80;;;;;;;-140.66;100.00;55571.53;5118684;28;20132;-76
2023/06/30 11:09:57;;;;;;;3.70;2.55;;;;;;;-140.66;100.00;55571.53;5120003;28;20027;-74
2023/06/30 11:12:52;;;;;;;8.10;2.70;;;;;;;-140.66;100.00;55571.53;5134485;28;20019;-76
2023/06/30 11:15:43;;;;;;;5.35;2.80;;;;;;;-140.66;100.00;55571.53;5120150;28;20023;-76
2023/06/30 11:18:31;;;;;;;4.38;2.70;;;;;;;-140.66;100.00;55571.53;5137156;27;20051;-76
2023/06/30 11:21:17;;;;;;;5.80;2.35;;;;;;;-140.66;100.00;55571.53;5139308;27;20019;-76
2023/06/30 11:24:14;;;;;;;7.43;2.92;;;;;;;-140.66;100.00;55571.53;5138628;27;20034;-75
2023/06/30 11:27:00;;;;;;;3.35;2.75;;;;;;;-140.66;100.00;55571.53;5138430;27;20023;-75
2023/06/30 11:29:49;;;;;;;4.00;2.55;;;;;;;-140.66;100.00;55571.53;5137877;27;20027;-73
2023/06/30 11:32:36;;;;;;;3.60;2.80;;;;;;;-140.66;100.00;55571.53;5138923;27;20027;-73
2023/06/30 11:35:22;;;;;;;3.17;2.55;;;;;;;-140.66;100.00;55571.53;5137890;27;20039;-75
2023/06/30 11:38:09;;;;;;;9.65;2.60;;;;;;;-140.66;100.00;55571.53;5124670;27;20027;-76
2023/06/30 11:40:59;;;;;;;6.25;2.30;;;;;;;-140.66;100.00;55571.53;5123746;27;20047;-77
2023/06/30 11:43:49;;;;;;;3.20;2.55;;;;;;;-140.66;100.00;55571.53;5136894;27;20023;-76
2023/06/30 11:46:36;;;;;;;4.15;2.67;;;;;;;-140.66;100.00;55571.53;5138061;27;20104;-76
2023/06/30 11:49:22;;;;;;;4.38;2.38;;;;;;;-140.66;100.00;55571.53;5138557;27;20042;-77
2023/06/30 11:52:07;;;;;;;4.63;2.65;;;;;;;-140.66;100.00;55571.53;5124330;27;20034;-77
2023/06/30 11:54:53;;;;;;;8.77;2.60;;;;;;;-140.66;100.00;55571.53;5111394;28;20020;-77
2023/06/30 11:57:41;;;;;;;6.72;2.17;;;;;;;-140.66;100.00;55571.53;5117763;28;20039;-77
2023/06/30 12:00:27;;;;;;;4.15;2.60;;;;;;;-140.66;100.00;55571.53;5104072;28;20031;-77
2023/06/30 12:03:17;;;;;;;3.78;2.50;;;;;;;-140.66;100.00;55571.53;5118146;28;20034;-75
2023/06/30 12:06:02;;;;;;;4.43;2.40;;;;;;;-140.66;100.00;55571.53;5121031;28;20032;-74
2023/06/30 12:08:48;;;;;;;7.05;2.80;;;;;;;-140.66;100.00;55571.53;5119398;28;20093;-76
2023/06/30 12:11:34;;;;;;;5.30;2.50;;;;;;;-140.66;100.00;55571.53;5118868;28;20038;-77
2023/06/30 12:14:22;;;;;;;7.80;2.40;;;;;;;-140.66;100.00;55571.53;5120906;28;20020;-75
2023/06/30 12:17:07;;;;;;;4.50;2.47;;;;;;;-140.66;100.00;55571.53;5121204;28;20023;-77
2023/06/30 12:19:53;;;;;;;4.85;2.40;;;;;;;-140.66;100.00;55571.53;5119646;28;20474;-76
2023/06/30 12:22:44;;;;;;;9.38;2.28;;;;;;;-140.66;100.00;55571.53;5097826;28;20360;-77
2023/06/30 12:25:34;;;;;;;5.18;2.55;;;;;;;-140.66;100.00;55571.53;5116893;28;20066;-76
2023/06/30 12:28:20;;;;;;;2.95;2.50;;;;;;;-140.66;100.00;55571.53;5117247;28;20088;-76
2023/06/30 12:31:06;;;;;;;4.15;2.47;;;;;;;-140.66;100.00;55571.53;5117061;28;20024;-75
2023/06/30 12:33:53;;;;;;;5.55;2.40;;;;;;;-140.66;100.00;55571.53;5116157;28;20038;-76